createdAt,value
2023-04-24T00:01:05.807Z,21.70
2023-04-24T00:03:34.868Z,21.54
2023-04-24T00:06:04.304Z,21.42
2023-04-24T00:08:32.696Z,21.30
2023-04-24T00:11:01.023Z,21.20
2023-04-24T00:13:30.340Z,21.08
2023-04-24T00:15:58.780Z,20.98
2023-04-24T00:18:27.257Z,20.92
2023-04-24T00:20:55.616Z,20.82
2023-04-24T00:23:23.938Z,20.76
2023-04-24T00:25:52.229Z,20.70
2023-04-24T00:28:21.094Z,20.68
2023-04-24T00:30:49.323Z,20.64
2023-04-24T00:33:17.766Z,20.60
2023-04-24T00:35:46.268Z,20.57
2023-04-24T00:38:14.671Z,20.53
2023-04-24T00:40:42.952Z,20.48
2023-04-24T00:43:11.721Z,20.48
2023-04-24T00:45:40.065Z,20.49
2023-04-24T00:48:09.731Z,20.47
2023-04-24T00:50:41.453Z,20.44
2023-04-24T00:53:10.041Z,20.43
2023-04-24T00:55:39.263Z,20.41
2023-04-24T00:58:07.588Z,20.40
2023-04-24T01:00:36.955Z,20.36
2023-04-24T01:03:08.033Z,20.33
2023-04-24T01:05:36.584Z,20.33
2023-04-24T01:08:05.424Z,20.32
2023-04-24T01:10:37.108Z,20.29
2023-04-24T01:13:05.563Z,20.28
2023-04-24T01:15:33.928Z,20.28
2023-04-24T01:18:02.283Z,20.27
2023-04-24T01:20:31.959Z,20.25
2023-04-24T01:23:00.558Z,20.22
2023-04-24T01:25:30.239Z,20.20
2023-04-24T01:27:59.188Z,20.19
2023-04-24T01:30:28.502Z,20.17
2023-04-24T01:32:57.972Z,20.17
2023-04-24T01:35:27.222Z,20.16
2023-04-24T01:37:55.648Z,20.14
2023-04-24T01:40:24.059Z,20.11
2023-04-24T01:42:53.250Z,20.12
2023-04-24T01:45:21.866Z,20.09
2023-04-24T01:47:51.860Z,20.09
2023-04-24T01:50:20.808Z,20.09
2023-04-24T01:52:49.084Z,20.09
2023-04-24T01:55:17.375Z,20.08
2023-04-24T01:57:45.609Z,20.08
2023-04-24T02:00:14.226Z,20.07
2023-04-24T02:02:45.709Z,20.05
2023-04-24T02:05:16.110Z,20.02
2023-04-24T02:07:44.401Z,19.99
2023-04-24T02:10:13.144Z,19.97
2023-04-24T02:12:41.471Z,19.96
2023-04-24T02:15:10.672Z,19.92
2023-04-24T02:17:38.916Z,19.91
2023-04-24T02:20:10.468Z,19.91
2023-04-24T02:22:38.789Z,19.88
2023-04-24T02:25:07.853Z,19.84
2023-04-24T02:27:36.098Z,19.80
2023-04-24T02:30:05.074Z,19.76
2023-04-24T02:32:33.340Z,19.60
2023-04-24T02:35:01.602Z,19.45
2023-04-24T02:37:29.912Z,19.40
2023-04-24T02:39:58.209Z,19.34
2023-04-24T02:42:26.591Z,19.36
2023-04-24T02:44:54.965Z,19.39
2023-04-24T02:47:23.383Z,19.41
2023-04-24T02:49:51.641Z,19.36
2023-04-24T02:52:19.888Z,19.33
2023-04-24T02:54:48.155Z,19.31
2023-04-24T02:57:16.987Z,19.29
2023-04-24T02:59:45.297Z,19.24
2023-04-24T03:02:14.035Z,19.26
2023-04-24T03:04:42.454Z,19.30
2023-04-24T03:07:11.154Z,19.31
2023-04-24T03:09:43.474Z,19.30
2023-04-24T03:12:11.981Z,19.21
2023-04-24T03:14:40.755Z,19.15
2023-04-24T03:17:08.984Z,19.11
2023-04-24T03:19:37.326Z,19.05
2023-04-24T03:22:06.229Z,19.04
2023-04-24T03:24:34.500Z,19.03
2023-04-24T03:27:02.728Z,19.02
2023-04-24T03:29:31.115Z,19.01
2023-04-24T03:31:59.464Z,19.03
2023-04-24T03:34:28.273Z,19.00
2023-04-24T03:36:56.567Z,18.93
2023-04-24T03:39:24.871Z,18.89
2023-04-24T03:41:53.100Z,18.82
2023-04-24T03:44:21.424Z,18.64
2023-04-24T03:46:49.788Z,18.51
2023-04-24T03:49:18.066Z,18.44
2023-04-24T03:51:46.343Z,18.51
2023-04-24T03:54:15.567Z,18.52
2023-04-24T03:56:43.844Z,18.50
2023-04-24T03:59:12.220Z,18.43
2023-04-24T04:01:43.903Z,18.36
2023-04-24T04:04:12.643Z,18.28
2023-04-24T04:06:41.747Z,18.14
2023-04-24T04:09:10.542Z,18.06
2023-04-24T04:11:39.042Z,18.12
2023-04-24T04:14:07.911Z,18.18
2023-04-24T04:16:38.130Z,18.23
2023-04-24T04:19:07.312Z,18.22
2023-04-24T04:21:35.601Z,18.21
2023-04-24T04:24:03.939Z,18.10
2023-04-24T04:26:34.434Z,18.09
2023-04-24T04:29:02.834Z,18.07
2023-04-24T04:31:32.066Z,18.06
2023-04-24T04:34:00.780Z,18.04
2023-04-24T04:36:31.226Z,18.06
2023-04-24T04:39:01.228Z,18.03
2023-04-24T04:41:29.976Z,18.05
2023-04-24T04:44:00.478Z,18.03
2023-04-24T04:46:28.735Z,17.93
2023-04-24T04:48:58.604Z,17.86
2023-04-24T04:51:26.965Z,17.80
2023-04-24T04:53:55.532Z,17.71
2023-04-24T04:56:24.194Z,17.63
2023-04-24T04:58:52.431Z,17.64
2023-04-24T05:01:21.112Z,17.56
2023-04-24T05:03:49.551Z,17.48
2023-04-24T05:06:18.099Z,17.53
2023-04-24T05:08:46.594Z,17.52
2023-04-24T05:11:14.971Z,17.56
2023-04-24T05:13:43.305Z,17.55
2023-04-24T05:16:11.789Z,17.53
2023-04-24T05:18:40.155Z,17.30
2023-04-24T05:21:08.569Z,17.06
2023-04-24T05:23:36.869Z,16.84
2023-04-24T05:26:07.355Z,16.65
2023-04-24T05:28:38.379Z,16.49
2023-04-24T05:31:07.344Z,16.42
2023-04-24T05:33:35.668Z,16.36
2023-04-24T05:36:03.946Z,16.30
2023-04-24T05:38:32.284Z,16.21
2023-04-24T05:41:00.573Z,16.13
2023-04-24T05:43:29.337Z,16.08
2023-04-24T05:45:57.674Z,16.03
2023-04-24T05:48:26.361Z,16.01
2023-04-24T05:50:54.656Z,15.99
2023-04-24T05:53:22.914Z,15.96
2023-04-24T05:55:51.488Z,15.91
2023-04-24T05:58:19.729Z,15.88
2023-04-24T06:00:48.726Z,15.83
2023-04-24T06:03:17.713Z,15.80
2023-04-24T06:05:46.126Z,15.79
2023-04-24T06:08:14.914Z,15.78
2023-04-24T06:10:43.228Z,15.77
2023-04-24T06:13:11.616Z,15.74
2023-04-24T06:15:40.388Z,15.71
2023-04-24T06:18:08.727Z,15.68
2023-04-24T06:20:37.072Z,15.63
2023-04-24T06:23:05.918Z,15.58
2023-04-24T06:25:34.532Z,15.55
2023-04-24T06:28:04.165Z,15.52
2023-04-24T06:30:32.582Z,15.51
2023-04-24T06:33:09.213Z,15.48
2023-04-24T06:35:47.437Z,15.43
2023-04-24T06:38:15.979Z,15.39
2023-04-24T06:40:44.815Z,15.31
2023-04-24T06:43:13.742Z,15.26
2023-04-24T06:45:42.130Z,15.22
2023-04-24T06:48:10.563Z,15.19
2023-04-24T06:50:38.964Z,15.16
2023-04-24T06:53:07.283Z,15.15
2023-04-24T06:55:35.537Z,15.13
2023-04-24T06:58:03.854Z,15.12
2023-04-24T07:01:05.001Z,15.10
2023-04-24T07:03:33.604Z,15.02
2023-04-24T07:06:02.228Z,14.98
2023-04-24T07:08:32.552Z,14.91
2023-04-24T07:11:01.564Z,14.86
2023-04-24T07:13:29.874Z,14.84
2023-04-24T07:15:58.391Z,14.81
2023-04-24T07:18:26.716Z,14.82
2023-04-24T07:20:54.973Z,14.84
2023-04-24T07:23:23.269Z,14.83
2023-04-24T07:25:51.624Z,14.81
2023-04-24T07:28:20.452Z,14.73
2023-04-24T07:30:48.665Z,14.70
2023-04-24T07:33:17.417Z,14.69
2023-04-24T07:35:45.726Z,14.68
2023-04-24T07:38:14.029Z,14.67
2023-04-24T07:40:42.934Z,14.65
2023-04-24T07:43:11.690Z,14.63
2023-04-24T07:45:41.482Z,14.59
2023-04-24T07:48:10.855Z,14.56
2023-04-24T07:50:39.227Z,14.52
2023-04-24T07:53:07.445Z,14.47
2023-04-24T07:55:35.855Z,14.40
2023-04-24T07:58:04.545Z,14.33
2023-04-24T08:00:32.798Z,14.29
2023-04-24T08:03:01.226Z,14.29
2023-04-24T08:05:30.494Z,14.27
2023-04-24T08:07:58.857Z,14.24
2023-04-24T08:10:27.664Z,14.20
2023-04-24T08:12:57.202Z,14.14
2023-04-24T08:15:25.861Z,14.08
2023-04-24T08:17:54.286Z,14.04
2023-04-24T08:20:22.609Z,14.01
2023-04-24T08:22:51.045Z,14.01
2023-04-24T08:25:20.456Z,13.98
2023-04-24T08:27:48.763Z,13.93
2023-04-24T08:30:17.310Z,13.88
2023-04-24T08:32:46.435Z,13.86
2023-04-24T08:35:14.866Z,13.80
2023-04-24T08:37:43.289Z,13.77
2023-04-24T08:40:16.936Z,13.74
2023-04-24T08:42:46.403Z,13.67
2023-04-24T08:45:15.381Z,13.64
2023-04-24T08:47:44.462Z,13.63
2023-04-24T08:50:13.931Z,13.63
2023-04-24T08:52:44.047Z,13.60
2023-04-24T08:55:12.869Z,13.55
2023-04-24T08:57:42.181Z,13.52
2023-04-24T09:00:12.191Z,13.48
2023-04-24T09:02:54.893Z,13.47
2023-04-24T09:05:27.792Z,13.48
2023-04-24T09:07:58.335Z,13.50
2023-04-24T09:10:27.823Z,13.50
2023-04-24T09:12:57.335Z,13.48
2023-04-24T09:15:26.513Z,13.44
2023-04-24T09:17:54.862Z,13.40
2023-04-24T09:20:23.218Z,13.40
2023-04-24T09:22:57.381Z,13.38
2023-04-24T09:25:33.348Z,13.36
2023-04-24T09:28:07.805Z,13.35
2023-04-24T09:30:36.236Z,13.28
2023-04-24T09:33:16.922Z,13.23
2023-04-24T09:35:54.563Z,13.16
2023-04-24T09:38:44.005Z,13.22
2023-04-24T09:41:16.157Z,13.17
2023-04-24T09:43:45.006Z,13.12
2023-04-24T09:46:13.577Z,13.13
2023-04-24T09:48:42.383Z,13.09
2023-04-24T09:51:13.201Z,13.02
2023-04-24T09:53:41.970Z,12.91
2023-04-24T09:56:16.874Z,12.86
2023-04-24T09:58:45.146Z,12.83
2023-04-24T10:01:13.547Z,12.85
2023-04-24T10:03:45.045Z,12.87
2023-04-24T10:06:15.026Z,12.86
2023-04-24T10:08:44.194Z,12.84
2023-04-24T10:11:13.449Z,12.83
2023-04-24T10:13:42.530Z,12.82
2023-04-24T10:16:11.226Z,12.80
2023-04-24T10:18:41.629Z,12.79
2023-04-24T10:21:09.980Z,12.76
2023-04-24T10:23:39.508Z,12.74
2023-04-24T10:26:08.932Z,12.74
2023-04-24T10:28:39.163Z,12.70
2023-04-24T10:31:08.365Z,12.66
2023-04-24T10:33:37.068Z,12.60
2023-04-24T10:36:06.484Z,12.59
2023-04-24T10:38:36.001Z,12.54
2023-04-24T10:41:12.034Z,12.51
2023-04-24T10:43:42.945Z,12.48
2023-04-24T10:46:14.349Z,12.47
2023-04-24T10:48:46.197Z,12.44
2023-04-24T10:51:15.942Z,12.42
2023-04-24T10:53:44.258Z,12.44
2023-04-24T10:56:12.767Z,12.41
2023-04-24T10:58:46.754Z,12.40
2023-04-24T11:01:29.480Z,12.41
2023-04-24T11:04:04.519Z,12.38
2023-04-24T11:06:39.014Z,12.36
2023-04-24T11:09:09.114Z,12.31
2023-04-24T11:11:39.510Z,12.27
2023-04-24T11:14:09.286Z,12.21
2023-04-24T11:16:41.030Z,12.15
2023-04-24T11:19:20.799Z,12.12
2023-04-24T11:22:06.673Z,12.12
2023-04-24T11:24:50.076Z,12.10
2023-04-24T11:27:23.601Z,12.10
2023-04-24T11:29:58.089Z,12.06
2023-04-24T11:32:35.197Z,12.04
2023-04-24T11:35:29.498Z,12.02
2023-04-24T11:40:29.618Z,11.89
2023-04-24T11:42:58.058Z,11.90
2023-04-24T11:45:31.863Z,11.94
2023-04-24T11:48:00.876Z,11.95
2023-04-24T11:50:30.357Z,11.98
2023-04-24T11:52:59.014Z,11.96
2023-04-24T11:55:29.546Z,11.93
2023-04-24T11:58:00.762Z,11.85
2023-04-24T12:00:36.101Z,11.79
2023-04-24T12:03:14.710Z,11.77
2023-04-24T12:05:43.462Z,11.72
2023-04-24T12:08:11.852Z,11.68
2023-04-24T12:10:40.149Z,11.65
2023-04-24T12:13:13.248Z,11.63
2023-04-24T12:15:42.936Z,11.62
2023-04-24T12:18:15.007Z,11.60
2023-04-24T12:20:43.428Z,11.61
2023-04-24T12:23:11.883Z,11.59
2023-04-24T12:25:42.845Z,11.59
2023-04-24T12:28:13.663Z,11.58
2023-04-24T12:30:50.605Z,11.59
2023-04-24T12:33:23.721Z,11.59
2023-04-24T12:35:57.549Z,11.62
2023-04-24T12:38:28.415Z,11.61
2023-04-24T12:41:08.078Z,11.59
2023-04-24T12:43:37.280Z,11.58
2023-04-24T12:46:06.800Z,11.59
2023-04-24T12:48:35.237Z,11.58
2023-04-24T12:51:03.733Z,11.63
2023-04-24T12:53:32.906Z,11.64
2023-04-24T12:56:01.253Z,11.68
2023-04-24T12:58:32.392Z,11.69
2023-04-24T13:01:00.708Z,11.72
2023-04-24T13:03:29.089Z,11.82
2023-04-24T13:05:57.426Z,11.86
2023-04-24T13:08:25.939Z,11.81
2023-04-24T13:10:55.709Z,11.85
2023-04-24T13:13:24.208Z,11.69
2023-04-24T13:15:52.563Z,11.55
2023-04-24T13:18:21.390Z,11.43
2023-04-24T13:20:50.033Z,11.33
2023-04-24T13:23:21.151Z,11.29
2023-04-24T13:25:49.398Z,11.28
2023-04-24T13:28:17.691Z,11.28
2023-04-24T13:30:46.155Z,11.32
2023-04-24T13:33:14.889Z,11.37
2023-04-24T13:35:43.249Z,11.44
2023-04-24T13:38:12.106Z,11.42
2023-04-24T13:40:40.994Z,11.43
2023-04-24T13:43:09.226Z,11.49
2023-04-24T13:45:37.552Z,11.63
2023-04-24T13:48:05.991Z,11.80
2023-04-24T13:50:34.364Z,11.88
2023-04-24T13:53:03.273Z,11.94
2023-04-24T13:55:31.873Z,11.96
2023-04-24T13:58:01.027Z,11.92
2023-04-24T14:00:30.183Z,11.98
2023-04-24T14:02:58.570Z,12.04
2023-04-24T14:05:27.363Z,12.06
2023-04-24T14:07:55.618Z,12.02
2023-04-24T14:10:23.957Z,12.03
2023-04-24T14:12:53.457Z,12.05
2023-04-24T14:15:21.969Z,12.01
2023-04-24T14:17:51.837Z,12.04
2023-04-24T14:20:20.471Z,12.08
2023-04-24T14:22:49.231Z,12.13
2023-04-24T14:25:17.824Z,12.15
2023-04-24T14:27:46.295Z,12.19
2023-04-24T14:30:15.334Z,12.23
2023-04-24T14:32:43.767Z,12.24
2023-04-24T14:35:12.200Z,12.32
2023-04-24T14:37:42.952Z,12.38
2023-04-24T14:40:29.793Z,12.40
2023-04-24T14:43:00.396Z,12.42
2023-04-24T14:45:29.901Z,12.50
2023-04-24T14:47:58.919Z,12.60
2023-04-24T14:50:29.928Z,12.73
2023-04-24T14:53:03.935Z,12.87
2023-04-24T14:55:33.099Z,13.00
2023-04-24T14:58:01.537Z,13.09
2023-04-24T15:00:30.127Z,13.10
2023-04-24T15:02:58.644Z,13.13
2023-04-24T15:05:27.422Z,13.21
2023-04-24T15:08:00.963Z,13.29
2023-04-24T15:10:35.062Z,13.39
2023-04-24T15:13:06.877Z,13.43
2023-04-24T15:15:39.409Z,13.46
2023-04-24T15:18:10.137Z,13.49
2023-04-24T15:20:38.734Z,13.56
2023-04-24T15:23:11.303Z,13.63
2023-04-24T15:25:40.388Z,13.72
2023-04-24T15:28:08.751Z,13.77
2023-04-24T15:30:37.200Z,13.79
2023-04-24T15:33:08.768Z,13.81
2023-04-24T15:35:40.459Z,13.88
2023-04-24T15:38:08.799Z,13.92
2023-04-24T15:40:37.326Z,14.03
2023-04-24T15:43:05.930Z,14.13
2023-04-24T15:45:35.545Z,14.28
2023-04-24T15:48:06.975Z,14.44
2023-04-24T15:50:38.428Z,14.50
2023-04-24T15:53:07.616Z,14.55
2023-04-24T15:55:38.069Z,14.66
2023-04-24T15:58:06.669Z,14.79
2023-04-24T16:00:38.157Z,14.88
2023-04-24T16:03:10.207Z,14.97
2023-04-24T16:05:39.137Z,15.04
2023-04-24T16:08:08.471Z,15.04
2023-04-24T16:10:36.805Z,15.08
2023-04-24T16:13:05.959Z,15.18
2023-04-24T16:15:37.284Z,15.20
2023-04-24T16:18:08.400Z,15.28
2023-04-24T16:20:36.831Z,15.29
2023-04-24T16:23:06.058Z,15.32
2023-04-24T16:25:34.430Z,15.36
2023-04-24T16:28:02.774Z,15.35
2023-04-24T16:30:31.465Z,15.45
2023-04-24T16:32:59.967Z,15.51
2023-04-24T16:35:28.410Z,15.71
2023-04-24T16:37:57.243Z,15.86
2023-04-24T16:40:26.220Z,16.20
2023-04-24T16:42:55.738Z,16.46
2023-04-24T16:45:24.037Z,16.69
2023-04-24T16:47:52.480Z,16.88
2023-04-24T16:50:27.174Z,17.01
2023-04-24T16:52:56.211Z,16.97
2023-04-24T16:55:26.061Z,16.88
2023-04-24T16:57:57.761Z,16.84
2023-04-24T17:00:26.230Z,17.00
2023-04-24T17:02:54.602Z,17.12
2023-04-24T17:05:24.455Z,17.26
2023-04-24T17:07:52.949Z,17.33
2023-04-24T17:10:23.877Z,17.40
2023-04-24T17:12:54.564Z,17.64
2023-04-24T17:15:28.669Z,17.72
2023-04-24T17:17:58.527Z,17.78
2023-04-24T17:20:31.496Z,17.82
2023-04-24T17:22:59.841Z,17.71
2023-04-24T17:25:31.659Z,17.68
2023-04-24T17:28:36.330Z,17.81
2023-04-24T17:31:14.996Z,17.99
2023-04-24T17:33:43.385Z,18.10
2023-04-24T17:36:15.038Z,18.19
2023-04-24T17:38:43.498Z,18.38
2023-04-24T17:41:11.940Z,18.60
2023-04-24T17:43:43.133Z,18.78
2023-04-24T17:46:11.265Z,18.70
2023-04-24T17:48:39.718Z,18.67
2023-04-24T17:51:07.986Z,18.66
2023-04-24T17:53:37.382Z,18.80
2023-04-24T17:56:05.754Z,18.78
2023-04-24T17:58:37.489Z,18.90
2023-04-24T18:01:08.499Z,19.15
2023-04-24T18:03:37.071Z,19.38
2023-04-24T18:06:08.114Z,19.66
2023-04-24T18:08:36.702Z,19.95
2023-04-24T18:11:15.598Z,20.06
2023-04-24T18:13:43.945Z,19.94
2023-04-24T18:16:12.477Z,19.85
2023-04-24T18:18:40.799Z,19.94
2023-04-24T18:21:15.358Z,19.97
2023-04-24T18:23:43.998Z,19.84
2023-04-24T18:26:19.643Z,19.80
2023-04-24T18:28:48.357Z,19.90
2023-04-24T18:31:19.876Z,19.75
2023-04-24T18:33:50.982Z,19.63
2023-04-24T18:36:18.949Z,19.49
2023-04-24T18:38:47.440Z,19.49
2023-04-24T18:41:36.766Z,19.72
2023-04-24T18:44:07.805Z,19.91
2023-04-24T18:46:42.186Z,19.75
2023-04-24T18:49:13.488Z,19.79
2023-04-24T18:51:53.148Z,19.81
2023-04-24T18:54:23.297Z,19.85
2023-04-24T18:56:52.726Z,19.78
2023-04-24T18:59:22.425Z,19.85
2023-04-24T19:01:50.676Z,19.81
2023-04-24T19:04:21.748Z,19.84
2023-04-24T19:06:56.446Z,19.88
2023-04-24T19:09:24.865Z,20.05
2023-04-24T19:12:04.896Z,20.27
2023-04-24T19:14:39.936Z,20.12
2023-04-24T19:17:10.838Z,20.05
2023-04-24T19:19:43.208Z,20.42
2023-04-24T19:22:13.844Z,20.45
2023-04-24T19:24:42.344Z,20.40
2023-04-24T19:27:11.048Z,20.36
2023-04-24T19:29:39.466Z,20.41
2023-04-24T19:32:10.834Z,20.36
2023-04-24T19:34:40.575Z,20.34
2023-04-24T19:37:09.635Z,20.38
2023-04-24T19:39:38.898Z,20.53
2023-04-24T19:42:11.193Z,20.46
2023-04-24T19:44:39.690Z,20.42
2023-04-24T19:47:08.607Z,20.42
2023-04-24T19:49:40.449Z,20.51
2023-04-24T19:52:08.740Z,20.60
2023-04-24T19:54:39.537Z,20.68
2023-04-24T19:57:07.969Z,20.67
2023-04-24T19:59:38.866Z,20.61
2023-04-24T20:02:11.085Z,20.65
2023-04-24T20:04:40.272Z,20.68
2023-04-24T20:07:11.851Z,20.71
2023-04-24T20:09:40.918Z,20.77
2023-04-24T20:12:10.778Z,20.97
2023-04-24T20:14:39.010Z,21.53
2023-04-24T20:17:10.050Z,22.02
2023-04-24T20:19:41.786Z,22.04
2023-04-24T20:22:13.073Z,21.94
2023-04-24T20:24:42.068Z,22.14
2023-04-24T20:27:11.150Z,22.15
2023-04-24T20:29:39.411Z,21.99
2023-04-24T20:32:11.661Z,21.85
2023-04-24T20:34:40.277Z,21.82
2023-04-24T20:37:11.530Z,21.75
2023-04-24T20:39:40.272Z,21.70
2023-04-24T20:42:14.682Z,21.70
2023-04-24T20:44:43.226Z,21.59
2023-04-24T20:47:12.341Z,21.58
2023-04-24T20:49:41.780Z,21.56
2023-04-24T20:52:10.334Z,21.51
2023-04-24T20:54:39.133Z,21.46
2023-04-24T20:57:07.509Z,21.44
2023-04-24T20:59:35.808Z,21.45
2023-04-24T21:10:16.586Z,21.62
2023-04-24T21:13:11.042Z,21.67
2023-04-24T21:18:46.664Z,21.94
2023-04-24T21:21:15.057Z,22.08
2023-04-24T21:24:03.032Z,22.10
2023-04-24T21:27:15.774Z,22.48
2023-04-24T21:30:01.274Z,22.53
2023-04-24T21:32:33.456Z,22.44
2023-04-24T21:35:13.269Z,22.42
2023-04-24T21:41:12.982Z,22.45
2023-04-24T21:43:45.288Z,22.43
2023-04-24T21:46:14.693Z,22.47
2023-04-24T21:48:43.483Z,22.40
2023-04-24T21:51:15.422Z,22.40
2023-04-24T21:54:13.605Z,22.45
2023-04-24T22:00:12.223Z,22.48
2023-04-24T22:05:18.416Z,22.54
2023-04-24T22:11:25.639Z,22.46
2023-04-24T22:15:13.372Z,22.37
2023-04-24T22:17:44.447Z,22.26
2023-04-24T22:20:17.883Z,22.23
2023-04-24T22:22:57.035Z,22.17
2023-04-24T22:28:17.573Z,22.12
2023-04-24T22:39:58.707Z,22.09
2023-04-24T22:42:44.506Z,22.09
2023-04-24T22:45:16.442Z,22.07
2023-04-24T22:47:45.188Z,22.07
2023-04-24T22:50:19.374Z,22.07
2023-04-24T22:56:16.342Z,22.07
2023-04-24T22:59:16.180Z,22.02
2023-04-24T23:05:15.209Z,21.96
2023-04-24T23:08:15.977Z,21.90
2023-04-24T23:10:47.387Z,21.84
2023-04-24T23:19:20.731Z,21.80
2023-04-24T23:21:49.215Z,21.79
2023-04-24T23:24:18.066Z,21.75
2023-04-24T23:26:46.671Z,21.74
2023-04-24T23:29:24.200Z,21.74
2023-04-24T23:34:49.910Z,21.70
2023-04-24T23:39:49.006Z,21.60
2023-04-24T23:42:17.550Z,21.57
2023-04-24T23:44:51.129Z,21.55
2023-04-24T23:47:28.029Z,21.53
2023-04-24T23:50:36.149Z,21.53
2023-04-24T23:56:47.859Z,21.50
2023-04-24T23:59:25.381Z,21.51
